首页
METAR-TAF:

METAR-TAF

机场 :

富納富提國際機場

富纳富提, 圖瓦盧

纬度: 08-31S, 经度: 179-13E, 海拔: 1米

当前天气观测

该预报发布于11分钟前的00:00 UTC
风速5节,风向东南
温度 31°C
湿度 89%
气压 1010 hPa
能见度10公里或以上
少量云层高于1800英尺

METAR: NGFU 170000Z 14005KT 9999 FEW018 31/29 Q1010

时间: 12:11 (00:11 UTC)

预报

该预报发布于48分钟前的23:23 UTC
预报有效从17日的 00点(UTC)到 17日的 24点(UTC)
风速8节,风向
能见度10公里或以上
散云层高于1800英尺
几率 30% :
短暂存在
从 17日的 01点(UTC)到 17日的 10点(UTC)
能見度: 5000
少量云层高于1800英尺, 积雨云.
雷暴, 雨

TAF: NGFU 162323Z 1700/1724 10008KT 9999 SCT018 PROB30 TEMPO 1701/1710 5000 TSRA FEW018CB

超过4000个机场的气象观测和天气预报(METAR&TAF报告)。

可查询的气象台以黄色和红色小点在地图上表示。

将鼠标移到小点上方,可查看气象台名称。

然后点击查看天气观测和预报。

如需切换地图:点击带黑十字的绿色按钮放大地图;点击带横线的绿色按钮缩小地图;或者点击绿色箭头查看邻近地区的地图。


METAR-TAF: